createdAt,value
2023-04-07T00:00:17.645Z,94724.00
2023-04-07T00:01:17.610Z,94726.00
2023-04-07T00:02:17.853Z,94726.00
2023-04-07T00:03:17.745Z,94724.00
2023-04-07T00:04:17.715Z,94724.00
2023-04-07T00:05:17.649Z,94724.00
2023-04-07T00:06:17.607Z,94724.00
2023-04-07T00:07:17.584Z,94726.00
2023-04-07T00:08:17.590Z,94726.00
2023-04-07T00:09:17.557Z,94726.00
2023-04-07T00:10:17.573Z,94728.00
2023-04-07T00:11:17.554Z,94730.00
2023-04-07T00:12:17.613Z,94730.00
2023-04-07T00:13:17.553Z,94728.00
2023-04-07T00:14:17.601Z,94726.00
2023-04-07T00:15:17.571Z,94728.00
2023-04-07T00:16:17.587Z,94726.00
2023-04-07T00:17:17.504Z,94724.00
2023-04-07T00:18:17.536Z,94724.00
2023-04-07T00:19:17.497Z,94720.00
2023-04-07T00:20:17.525Z,94718.00
2023-04-07T00:21:17.489Z,94718.00
2023-04-07T00:22:17.461Z,94716.00
2023-04-07T00:23:17.469Z,94716.00
2023-04-07T00:24:31.147Z,94714.00
2023-04-07T00:25:19.396Z,94714.00
2023-04-07T00:26:17.469Z,94716.00
2023-04-07T00:27:17.436Z,94716.00
2023-04-07T00:28:17.449Z,94714.00
2023-04-07T00:29:17.501Z,94712.00
2023-04-07T00:30:17.431Z,94714.00
2023-04-07T00:31:17.463Z,94716.00
2023-04-07T00:32:17.441Z,94712.00
2023-04-07T00:33:17.573Z,94714.00
2023-04-07T00:34:17.582Z,94711.00
2023-04-07T00:35:17.646Z,94711.00
2023-04-07T00:36:17.680Z,94709.00
2023-04-07T00:37:17.752Z,94707.00
2023-04-07T00:38:17.824Z,94707.00
2023-04-07T00:39:17.889Z,94707.00
2023-04-07T00:40:18.426Z,94703.00
2023-04-07T00:41:17.976Z,94701.00
2023-04-07T00:42:18.039Z,94705.00
2023-04-07T00:43:18.108Z,94701.00
2023-04-07T00:44:18.141Z,94701.00
2023-04-07T00:45:18.246Z,94699.00
2023-04-07T00:46:18.262Z,94695.00
2023-04-07T00:47:18.285Z,94695.00
2023-04-07T00:48:18.336Z,94693.00
2023-04-07T00:49:18.405Z,94693.00
2023-04-07T00:50:18.483Z,94693.00
2023-04-07T00:51:18.510Z,94691.00
2023-04-07T00:52:18.600Z,94691.00
2023-04-07T00:53:19.416Z,94693.00
2023-04-07T00:54:18.698Z,94689.00
2023-04-07T00:55:19.406Z,94687.00
2023-04-07T00:56:18.812Z,94687.00
2023-04-07T00:57:18.874Z,94685.00
2023-04-07T00:58:18.986Z,94683.00
2023-04-07T00:59:18.997Z,94683.00
2023-04-07T01:00:19.081Z,94681.00
2023-04-07T01:01:19.183Z,94681.00
2023-04-07T01:02:19.230Z,94679.00
2023-04-07T01:03:19.527Z,94677.00
2023-04-07T01:04:19.564Z,94677.00
2023-04-07T01:05:19.406Z,94675.00
2023-04-07T01:06:19.388Z,94675.00
2023-04-07T01:07:19.473Z,94677.00
2023-04-07T01:08:19.545Z,94675.00
2023-04-07T01:09:19.674Z,94675.00
2023-04-07T01:10:19.660Z,94673.00
2023-04-07T01:11:19.691Z,94669.00
2023-04-07T01:12:19.718Z,94669.00
2023-04-07T01:13:19.832Z,94669.00
2023-04-07T01:14:19.858Z,94667.00
2023-04-07T01:15:19.955Z,94665.00
2023-04-07T01:16:20.005Z,94667.00
2023-04-07T01:17:20.012Z,94669.00
2023-04-07T01:18:20.082Z,94669.00
2023-04-07T01:19:20.108Z,94671.00
2023-04-07T01:20:20.215Z,94677.00
2023-04-07T01:21:20.209Z,94675.00
2023-04-07T01:22:20.282Z,94673.00
2023-04-07T01:23:20.345Z,94675.00
2023-04-07T01:24:20.405Z,94675.00
2023-04-07T01:25:20.491Z,94677.00
2023-04-07T01:26:20.488Z,94679.00
2023-04-07T01:27:20.526Z,94675.00
2023-04-07T01:28:20.607Z,94679.00
2023-04-07T01:29:20.676Z,94679.00
2023-04-07T01:30:20.667Z,94679.00
2023-04-07T01:31:20.705Z,94677.00
2023-04-07T01:32:20.832Z,94675.00
2023-04-07T01:33:20.776Z,94675.00
2023-04-07T01:34:20.847Z,94677.00
2023-04-07T01:35:20.922Z,94675.00
2023-04-07T01:36:20.916Z,94679.00
2023-04-07T01:37:20.987Z,94681.00
2023-04-07T01:38:21.016Z,94679.00
2023-04-07T01:39:21.067Z,94681.00
2023-04-07T01:40:21.095Z,94679.00
2023-04-07T01:41:21.123Z,94679.00
2023-04-07T01:42:21.136Z,94679.00
2023-04-07T01:43:21.205Z,94681.00
2023-04-07T01:44:21.317Z,94681.00
2023-04-07T01:45:21.271Z,94681.00
2023-04-07T01:46:21.278Z,94679.00
2023-04-07T01:47:21.359Z,94679.00
2023-04-07T01:48:21.346Z,94679.00
2023-04-07T01:49:21.414Z,94677.00
2023-04-07T01:50:21.458Z,94675.00
2023-04-07T01:51:21.501Z,94673.00
2023-04-07T01:52:21.600Z,94673.00
2023-04-07T01:53:21.613Z,94673.00
2023-04-07T01:54:21.628Z,94673.00
2023-04-07T01:55:21.703Z,94675.00
2023-04-07T01:56:21.699Z,94677.00
2023-04-07T01:57:21.736Z,94679.00
2023-04-07T01:58:21.786Z,94679.00
2023-04-07T01:59:21.860Z,94677.00
2023-04-07T02:00:21.930Z,94679.00
2023-04-07T02:01:22.003Z,94677.00
2023-04-07T02:02:22.129Z,94681.00
2023-04-07T02:03:22.108Z,94681.00
2023-04-07T02:04:22.101Z,94681.00
2023-04-07T02:05:22.131Z,94683.00
2023-04-07T02:06:22.205Z,94683.00
2023-04-07T02:07:22.211Z,94681.00
2023-04-07T02:08:22.236Z,94677.00
2023-04-07T02:09:22.297Z,94679.00
2023-04-07T02:10:22.326Z,94677.00
2023-04-07T02:11:22.339Z,94677.00
2023-04-07T02:12:22.381Z,94675.00
2023-04-07T02:13:22.426Z,94677.00
2023-04-07T02:14:22.430Z,94675.00
2023-04-07T02:15:22.513Z,94673.00
2023-04-07T02:16:22.567Z,94671.00
2023-04-07T02:17:22.557Z,94669.00
2023-04-07T02:18:22.611Z,94669.00
2023-04-07T02:19:22.649Z,94667.00
2023-04-07T02:20:22.679Z,94667.00
2023-04-07T02:21:22.711Z,94669.00
2023-04-07T02:22:22.847Z,94665.00
2023-04-07T02:23:22.768Z,94664.00
2023-04-07T02:24:22.836Z,94662.00
2023-04-07T02:25:22.900Z,94662.00
2023-04-07T02:26:22.924Z,94664.00
2023-04-07T02:27:22.983Z,94662.00
2023-04-07T02:28:22.994Z,94662.00
2023-04-07T02:29:23.042Z,94664.00
2023-04-07T02:30:23.111Z,94662.00
2023-04-07T02:31:23.150Z,94660.00
2023-04-07T02:32:23.202Z,94658.00
2023-04-07T02:33:23.237Z,94658.00
2023-04-07T02:34:23.372Z,94658.00
2023-04-07T02:35:23.491Z,94650.00
2023-04-07T02:36:23.399Z,94648.00
2023-04-07T02:37:23.381Z,94646.00
2023-04-07T02:38:23.423Z,94644.00
2023-04-07T02:39:23.460Z,94646.00
2023-04-07T02:40:23.504Z,94646.00
2023-04-07T02:41:23.565Z,94644.00
2023-04-07T02:42:23.629Z,94644.00
2023-04-07T02:43:23.635Z,94644.00
2023-04-07T02:44:23.671Z,94642.00
2023-04-07T02:45:23.769Z,94640.00
2023-04-07T02:46:23.862Z,94640.00
2023-04-07T02:47:23.820Z,94638.00
2023-04-07T02:48:23.877Z,94636.00
2023-04-07T02:49:23.907Z,94634.00
2023-04-07T02:50:23.986Z,94634.00
2023-04-07T02:51:24.020Z,94632.00
2023-04-07T02:52:24.083Z,94636.00
2023-04-07T02:53:24.115Z,94630.00
2023-04-07T02:54:24.174Z,94632.00
2023-04-07T02:55:24.946Z,94630.00
2023-04-07T02:56:24.229Z,94632.00
2023-04-07T02:57:24.284Z,94628.00
2023-04-07T02:58:24.305Z,94628.00
2023-04-07T02:59:24.361Z,94626.00
2023-04-07T03:00:24.426Z,94628.00
2023-04-07T03:01:24.492Z,94630.00
2023-04-07T03:02:24.675Z,94630.00
2023-04-07T03:03:24.625Z,94628.00
2023-04-07T03:04:24.704Z,94628.00
2023-04-07T03:05:24.585Z,94624.00
2023-04-07T03:06:24.658Z,94628.00
2023-04-07T03:07:24.689Z,94628.00
2023-04-07T03:08:24.726Z,94628.00
2023-04-07T03:09:24.773Z,94626.00
2023-04-07T03:10:24.794Z,94624.00
2023-04-07T03:11:24.870Z,94624.00
2023-04-07T03:12:24.870Z,94628.00
2023-04-07T03:13:24.902Z,94624.00
2023-04-07T03:14:24.970Z,94626.00
2023-04-07T03:15:24.979Z,94626.00
2023-04-07T03:16:25.018Z,94624.00
2023-04-07T03:17:25.015Z,94622.00
2023-04-07T03:18:25.034Z,94622.00
2023-04-07T03:19:25.057Z,94624.00
2023-04-07T03:20:25.128Z,94622.00
2023-04-07T03:21:25.140Z,94622.00
2023-04-07T03:22:25.169Z,94620.00
2023-04-07T03:23:25.154Z,94622.00
2023-04-07T03:24:25.203Z,94620.00
2023-04-07T03:25:25.226Z,94624.00
2023-04-07T03:26:25.238Z,94618.00
2023-04-07T03:27:25.265Z,94616.00
2023-04-07T03:28:25.324Z,94618.00
2023-04-07T03:29:25.285Z,94618.00
2023-04-07T03:30:25.367Z,94618.00
2023-04-07T03:31:25.553Z,94614.00
2023-04-07T03:32:25.469Z,94612.00
2023-04-07T03:33:25.418Z,94614.00
2023-04-07T03:34:25.436Z,94614.00
2023-04-07T03:35:25.505Z,94611.00
2023-04-07T03:36:25.475Z,94614.00
2023-04-07T03:37:25.546Z,94612.00
2023-04-07T03:38:25.520Z,94612.00
2023-04-07T03:39:25.586Z,94611.00
2023-04-07T03:40:25.604Z,94609.00
2023-04-07T03:41:25.641Z,94609.00
2023-04-07T03:42:25.636Z,94607.00
2023-04-07T03:43:25.659Z,94612.00
2023-04-07T03:44:28.462Z,94611.00
2023-04-07T03:45:25.698Z,94611.00
2023-04-07T03:46:25.743Z,94611.00
2023-04-07T03:47:25.659Z,94611.00
2023-04-07T03:48:26.952Z,94611.00
2023-04-07T03:49:25.610Z,94607.00
2023-04-07T03:50:25.657Z,94607.00
2023-04-07T03:51:25.652Z,94609.00
2023-04-07T03:52:26.021Z,94607.00
2023-04-07T03:53:25.742Z,94607.00
2023-04-07T03:54:25.718Z,94607.00
2023-04-07T03:55:25.783Z,94607.00
2023-04-07T03:56:27.924Z,94605.00
2023-04-07T03:57:25.768Z,94607.00
2023-04-07T03:58:25.792Z,94607.00
2023-04-07T03:59:25.752Z,94607.00
2023-04-07T04:00:25.729Z,94607.00
2023-04-07T04:01:25.733Z,94607.00
2023-04-07T04:02:25.834Z,94607.00
2023-04-07T04:03:25.853Z,94605.00
2023-04-07T04:04:25.707Z,94605.00
2023-04-07T04:05:25.708Z,94605.00
2023-04-07T04:06:25.682Z,94605.00
2023-04-07T04:07:25.695Z,94603.00
2023-04-07T04:08:25.669Z,94603.00
2023-04-07T04:09:25.680Z,94601.00
2023-04-07T04:10:25.652Z,94603.00
2023-04-07T04:11:25.681Z,94603.00
2023-04-07T04:12:25.689Z,94601.00
2023-04-07T04:13:25.635Z,94601.00
2023-04-07T04:14:25.629Z,94599.00
2023-04-07T04:15:25.638Z,94599.00
2023-04-07T04:16:25.680Z,94599.00
2023-04-07T04:17:25.674Z,94597.00
2023-04-07T04:18:25.594Z,94597.00
2023-04-07T04:19:25.619Z,94595.00
2023-04-07T04:20:25.585Z,94593.00
2023-04-07T04:21:25.597Z,94593.00
2023-04-07T04:22:25.588Z,94593.00
2023-04-07T04:23:26.454Z,94591.00
2023-04-07T04:24:25.552Z,94591.00
2023-04-07T04:25:25.566Z,94591.00
2023-04-07T04:26:25.538Z,94589.00
2023-04-07T04:27:25.561Z,94591.00
2023-04-07T04:28:25.524Z,94587.00
2023-04-07T04:29:25.526Z,94589.00
2023-04-07T04:30:25.502Z,94587.00
2023-04-07T04:31:25.587Z,94587.00
2023-04-07T04:32:25.539Z,94591.00
2023-04-07T04:33:25.496Z,94589.00
2023-04-07T04:34:25.466Z,94589.00
2023-04-07T04:35:25.502Z,94587.00
2023-04-07T04:36:25.496Z,94587.00
2023-04-07T04:37:25.477Z,94587.00
2023-04-07T04:38:25.440Z,94589.00
2023-04-07T04:39:25.454Z,94589.00
2023-04-07T04:40:25.446Z,94589.00
2023-04-07T04:41:25.444Z,94589.00
2023-04-07T04:42:25.480Z,94587.00
2023-04-07T04:43:25.454Z,94587.00
2023-04-07T04:44:25.416Z,94589.00
2023-04-07T04:45:26.001Z,94585.00
2023-04-07T04:46:25.470Z,94585.00
2023-04-07T04:47:25.545Z,94585.00
2023-04-07T04:48:25.371Z,94585.00
2023-04-07T04:49:25.394Z,94587.00
2023-04-07T04:50:25.365Z,94587.00
2023-04-07T04:51:25.399Z,94585.00
2023-04-07T04:52:25.361Z,94587.00
2023-04-07T04:53:25.387Z,94587.00
2023-04-07T04:54:25.333Z,94587.00
2023-04-07T04:55:25.385Z,94587.00
2023-04-07T04:56:25.343Z,94585.00
2023-04-07T04:57:25.355Z,94589.00
2023-04-07T04:58:25.324Z,94589.00
2023-04-07T04:59:25.382Z,94593.00
2023-04-07T05:00:25.309Z,94591.00
2023-04-07T05:01:25.321Z,94591.00
2023-04-07T05:02:26.101Z,94591.00
2023-04-07T05:03:25.573Z,94587.00
2023-04-07T05:04:25.677Z,94589.00
2023-04-07T05:05:25.454Z,94589.00
2023-04-07T05:06:25.525Z,94589.00
2023-04-07T05:07:25.563Z,94587.00
2023-04-07T05:08:25.565Z,94587.00
2023-04-07T05:09:25.564Z,94589.00
2023-04-07T05:10:25.593Z,94589.00
2023-04-07T05:11:25.658Z,94589.00
2023-04-07T05:12:25.662Z,94591.00
2023-04-07T05:13:25.706Z,94585.00
2023-04-07T05:14:25.703Z,94587.00
2023-04-07T05:15:25.759Z,94587.00
2023-04-07T05:16:25.794Z,94587.00
2023-04-07T05:17:25.881Z,94585.00
2023-04-07T05:18:25.880Z,94587.00
2023-04-07T05:19:28.508Z,94585.00
2023-04-07T05:20:25.893Z,94587.00
2023-04-07T05:21:25.880Z,94585.00
2023-04-07T05:22:25.849Z,94587.00
2023-04-07T05:23:25.838Z,94589.00
2023-04-07T05:24:25.853Z,94587.00
2023-04-07T05:25:25.815Z,94587.00
2023-04-07T05:26:25.817Z,94589.00
2023-04-07T05:27:25.791Z,94589.00
2023-04-07T05:28:25.812Z,94589.00
2023-04-07T05:29:25.764Z,94595.00
2023-04-07T05:30:25.755Z,94593.00
2023-04-07T05:31:25.799Z,94591.00
2023-04-07T05:32:25.814Z,94591.00
2023-04-07T05:33:25.772Z,94595.00
2023-04-07T05:34:25.788Z,94595.00
2023-04-07T05:35:25.732Z,94593.00
2023-04-07T05:36:25.853Z,94593.00
2023-04-07T05:37:25.731Z,94591.00
2023-04-07T05:38:25.721Z,94591.00
2023-04-07T05:39:25.707Z,94591.00
2023-04-07T05:40:25.679Z,94589.00
2023-04-07T05:41:26.002Z,94589.00
2023-04-07T05:42:25.705Z,94591.00
2023-04-07T05:43:25.687Z,94589.00
2023-04-07T05:44:25.687Z,94589.00
2023-04-07T05:45:25.727Z,94587.00
2023-04-07T05:46:25.701Z,94587.00
2023-04-07T05:47:25.666Z,94589.00
2023-04-07T05:48:25.625Z,94585.00
2023-04-07T05:49:25.650Z,94585.00
2023-04-07T05:50:25.652Z,94585.00
2023-04-07T05:51:25.621Z,94581.00
2023-04-07T05:52:25.614Z,94585.00
2023-04-07T05:53:25.662Z,94579.00
2023-04-07T05:54:26.505Z,94585.00
2023-04-07T05:55:25.600Z,94583.00
2023-04-07T05:56:25.571Z,94585.00
2023-04-07T05:57:25.600Z,94585.00
2023-04-07T05:58:25.597Z,94587.00
2023-04-07T05:59:25.571Z,94587.00
2023-04-07T06:00:25.538Z,94587.00
2023-04-07T06:01:26.944Z,94587.00
2023-04-07T06:02:25.749Z,94587.00
2023-04-07T06:03:25.664Z,94585.00
2023-04-07T06:04:25.551Z,94589.00
2023-04-07T06:05:25.587Z,94589.00
2023-04-07T06:06:25.492Z,94589.00
2023-04-07T06:07:25.509Z,94589.00
2023-04-07T06:08:25.486Z,94593.00
2023-04-07T06:09:25.460Z,94595.00
2023-04-07T06:10:25.462Z,94595.00
2023-04-07T06:11:25.481Z,94593.00
2023-04-07T06:12:25.467Z,94593.00
2023-04-07T06:13:25.482Z,94597.00
2023-04-07T06:14:25.452Z,94597.00
2023-04-07T06:15:25.455Z,94597.00
2023-04-07T06:16:25.491Z,94597.00
2023-04-07T06:17:25.473Z,94597.00
2023-04-07T06:18:25.422Z,94597.00
2023-04-07T06:19:25.443Z,94599.00
2023-04-07T06:20:25.394Z,94599.00
2023-04-07T06:21:25.429Z,94599.00
2023-04-07T06:22:25.434Z,94601.00
2023-04-07T06:23:25.471Z,94601.00
2023-04-07T06:24:25.478Z,94601.00
2023-04-07T06:25:25.508Z,94597.00
2023-04-07T06:26:25.462Z,94599.00
2023-04-07T06:27:25.489Z,94597.00
2023-04-07T06:28:25.494Z,94597.00
2023-04-07T06:29:25.521Z,94601.00
2023-04-07T06:30:25.547Z,94595.00
2023-04-07T06:31:25.575Z,94599.00
2023-04-07T06:32:25.649Z,94599.00
2023-04-07T06:33:25.701Z,94595.00
2023-04-07T06:34:25.561Z,94595.00
2023-04-07T06:35:25.593Z,94593.00
2023-04-07T06:36:25.627Z,94595.00
2023-04-07T06:37:25.629Z,94593.00
2023-04-07T06:38:25.653Z,94593.00
2023-04-07T06:39:25.595Z,94593.00
2023-04-07T06:40:25.647Z,94593.00
2023-04-07T06:41:25.628Z,94591.00
2023-04-07T06:42:25.663Z,94593.00
2023-04-07T06:43:25.678Z,94591.00
2023-04-07T06:44:25.645Z,94589.00
2023-04-07T06:45:25.669Z,94589.00
2023-04-07T06:46:25.705Z,94589.00
2023-04-07T06:47:25.733Z,94587.00
2023-04-07T06:48:25.658Z,94587.00
2023-04-07T06:49:25.687Z,94585.00
2023-04-07T06:50:25.711Z,94587.00
2023-04-07T06:51:26.031Z,94587.00
2023-04-07T06:52:25.699Z,94587.00
2023-04-07T06:53:25.714Z,94589.00
2023-04-07T06:54:25.727Z,94591.00
2023-04-07T06:55:25.747Z,94591.00
2023-04-07T06:56:25.767Z,94589.00
2023-04-07T06:57:25.737Z,94589.00
2023-04-07T06:58:26.564Z,94589.00
2023-04-07T06:59:25.724Z,94587.00
2023-04-07T07:00:25.697Z,94583.00
2023-04-07T07:01:25.771Z,94583.00
2023-04-07T07:02:25.864Z,94583.00
2023-04-07T07:03:25.973Z,94579.00
2023-04-07T07:04:25.818Z,94583.00
2023-04-07T07:05:25.742Z,94581.00
2023-04-07T07:06:25.751Z,94577.00
2023-04-07T07:07:25.771Z,94579.00
2023-04-07T07:08:25.813Z,94575.00
2023-04-07T07:09:25.894Z,94575.00
2023-04-07T07:10:25.777Z,94573.00
2023-04-07T07:11:25.749Z,94573.00
2023-04-07T07:12:25.774Z,94571.00
2023-04-07T07:13:25.772Z,94573.00
2023-04-07T07:14:25.843Z,94569.00
2023-04-07T07:15:26.562Z,94569.00
2023-04-07T07:16:25.858Z,94565.00
2023-04-07T07:17:25.806Z,94565.00
2023-04-07T07:18:26.530Z,94567.00
2023-04-07T07:19:25.798Z,94565.00
2023-04-07T07:20:26.071Z,94569.00
2023-04-07T07:21:25.816Z,94569.00
2023-04-07T07:22:25.802Z,94569.00
2023-04-07T07:23:25.814Z,94567.00
2023-04-07T07:24:25.840Z,94567.00
2023-04-07T07:25:25.844Z,94567.00
2023-04-07T07:26:25.891Z,94565.00
2023-04-07T07:27:25.844Z,94569.00
2023-04-07T07:28:25.847Z,94565.00
2023-04-07T07:29:25.851Z,94567.00
2023-04-07T07:30:25.870Z,94567.00
2023-04-07T07:31:25.965Z,94565.00
2023-04-07T07:32:25.919Z,94565.00
2023-04-07T07:33:25.837Z,94567.00
2023-04-07T07:34:25.859Z,94565.00
2023-04-07T07:35:25.898Z,94565.00
2023-04-07T07:36:25.900Z,94567.00
2023-04-07T07:37:25.864Z,94565.00
2023-04-07T07:38:25.865Z,94564.00
2023-04-07T07:39:25.897Z,94565.00
2023-04-07T07:40:25.928Z,94562.00
2023-04-07T07:41:26.116Z,94560.00
2023-04-07T07:42:25.901Z,94558.00
2023-04-07T07:43:25.877Z,94558.00
2023-04-07T07:44:25.909Z,94556.00
2023-04-07T07:45:25.939Z,94558.00
2023-04-07T07:46:26.027Z,94556.00
2023-04-07T07:47:25.997Z,94552.00
2023-04-07T07:48:26.053Z,94550.00
2023-04-07T07:49:26.097Z,94548.00
2023-04-07T07:50:26.166Z,94546.00
2023-04-07T07:51:26.174Z,94548.00
2023-04-07T07:52:26.197Z,94548.00
2023-04-07T07:53:26.168Z,94542.00
2023-04-07T07:54:26.178Z,94542.00
2023-04-07T07:55:26.216Z,94546.00
2023-04-07T07:56:26.176Z,94544.00
2023-04-07T07:57:26.175Z,94542.00
2023-04-07T07:58:26.173Z,94542.00
2023-04-07T07:59:26.171Z,94538.00
2023-04-07T08:00:26.254Z,94538.00
2023-04-07T08:01:26.192Z,94532.00
2023-04-07T08:02:26.222Z,94532.00
2023-04-07T08:03:26.285Z,94530.00
2023-04-07T08:04:26.603Z,94530.00
2023-04-07T08:05:26.194Z,94534.00
2023-04-07T08:06:26.146Z,94532.00
2023-04-07T08:07:26.160Z,94530.00
2023-04-07T08:08:26.131Z,94530.00
2023-04-07T08:09:26.190Z,94530.00
2023-04-07T08:10:26.179Z,94526.00
2023-04-07T08:11:26.190Z,94524.00
2023-04-07T08:12:26.190Z,94524.00
2023-04-07T08:13:26.172Z,94524.00
2023-04-07T08:14:26.161Z,94522.00
2023-04-07T08:15:26.149Z,94520.00
2023-04-07T08:16:26.214Z,94520.00
2023-04-07T08:17:27.213Z,94517.00
2023-04-07T08:18:26.171Z,94513.00
2023-04-07T08:19:26.176Z,94513.00
2023-04-07T08:20:26.130Z,94515.00
2023-04-07T08:21:26.176Z,94511.00
2023-04-07T08:22:26.144Z,94511.00
2023-04-07T08:23:26.153Z,94513.00
2023-04-07T08:24:26.198Z,94513.00
2023-04-07T08:25:26.188Z,94511.00
2023-04-07T08:26:26.155Z,94509.00
2023-04-07T08:27:26.134Z,94507.00
2023-04-07T08:28:26.144Z,94503.00
2023-04-07T08:29:26.170Z,94505.00
2023-04-07T08:30:26.143Z,94507.00
2023-04-07T08:31:26.163Z,94507.00
2023-04-07T08:32:26.186Z,94507.00
2023-04-07T08:33:26.142Z,94505.00
2023-04-07T08:34:26.145Z,94507.00
2023-04-07T08:35:26.126Z,94501.00
2023-04-07T08:36:26.163Z,94507.00
2023-04-07T08:37:26.111Z,94497.00
2023-04-07T08:38:26.113Z,94499.00
2023-04-07T08:39:26.106Z,94497.00
2023-04-07T08:40:26.090Z,94497.00
2023-04-07T08:41:26.090Z,94495.00
2023-04-07T08:42:26.103Z,94493.00
2023-04-07T08:43:26.083Z,94493.00
2023-04-07T08:44:26.087Z,94491.00
2023-04-07T08:45:26.102Z,94489.00
2023-04-07T08:46:26.190Z,94489.00
2023-04-07T08:47:26.108Z,94489.00
2023-04-07T08:48:26.104Z,94485.00
2023-04-07T08:49:27.111Z,94485.00
2023-04-07T08:50:26.170Z,94485.00
2023-04-07T08:51:29.084Z,94485.00
2023-04-07T08:52:26.233Z,94487.00
2023-04-07T08:53:26.225Z,94483.00
2023-04-07T08:54:26.226Z,94481.00
2023-04-07T08:55:26.249Z,94479.00
2023-04-07T08:56:26.178Z,94477.00
2023-04-07T08:57:26.287Z,94475.00
2023-04-07T08:58:26.189Z,94479.00
2023-04-07T08:59:26.146Z,94479.00
2023-04-07T09:00:26.152Z,94475.00
2023-04-07T09:01:26.197Z,94475.00
2023-04-07T09:02:26.288Z,94473.00
2023-04-07T09:03:26.185Z,94473.00
2023-04-07T09:04:26.123Z,94473.00
2023-04-07T09:05:26.117Z,94470.00
2023-04-07T09:06:27.187Z,94464.00
2023-04-07T09:07:26.091Z,94466.00
2023-04-07T09:08:26.098Z,94462.00
2023-04-07T09:09:26.082Z,94460.00
2023-04-07T09:10:26.112Z,94456.00
2023-04-07T09:11:26.148Z,94454.00
2023-04-07T09:12:26.097Z,94452.00
2023-04-07T09:13:26.082Z,94452.00
2023-04-07T09:14:26.069Z,94450.00
2023-04-07T09:15:26.012Z,94448.00
2023-04-07T09:16:26.073Z,94444.00
2023-04-07T09:17:26.127Z,94446.00
2023-04-07T09:18:26.206Z,94444.00
2023-04-07T09:19:26.021Z,94440.00
2023-04-07T09:20:25.989Z,94438.00
2023-04-07T09:21:25.999Z,94434.00
2023-04-07T09:22:25.995Z,94434.00
2023-04-07T09:23:26.579Z,94434.00
2023-04-07T09:24:25.957Z,94430.00
2023-04-07T09:25:25.978Z,94430.00
2023-04-07T09:26:25.944Z,94430.00
2023-04-07T09:27:25.969Z,94428.00
2023-04-07T09:28:25.949Z,94424.00
2023-04-07T09:29:26.027Z,94424.00
2023-04-07T09:30:26.069Z,94421.00
2023-04-07T09:31:26.158Z,94421.00
2023-04-07T09:32:26.238Z,94419.00
2023-04-07T09:33:26.224Z,94417.00
2023-04-07T09:34:26.300Z,94417.00
2023-04-07T09:35:26.374Z,94415.00
2023-04-07T09:36:26.392Z,94411.00
2023-04-07T09:37:26.453Z,94411.00
2023-04-07T09:38:26.550Z,94409.00
2023-04-07T09:39:26.629Z,94405.00
2023-04-07T09:40:26.666Z,94405.00
2023-04-07T09:41:26.778Z,94401.00
2023-04-07T09:42:26.753Z,94401.00
2023-04-07T09:43:26.823Z,94393.00
2023-04-07T09:44:26.896Z,94391.00
2023-04-07T09:45:34.767Z,94389.00
2023-04-07T09:46:27.977Z,94389.00
2023-04-07T09:47:26.942Z,94389.00
2023-04-07T09:48:27.581Z,94389.00
2023-04-07T09:49:27.666Z,94385.00
2023-04-07T09:50:26.905Z,94385.00
2023-04-07T09:51:26.866Z,94381.00
2023-04-07T09:52:26.865Z,94376.00
2023-04-07T09:53:26.882Z,94376.00
2023-04-07T09:54:27.129Z,94370.00
2023-04-07T09:55:27.050Z,94370.00
2023-04-07T09:56:27.097Z,94366.00
2023-04-07T09:57:27.134Z,94368.00
2023-04-07T09:58:27.213Z,94366.00
2023-04-07T09:59:29.120Z,94364.00
2023-04-07T10:00:27.360Z,94362.00
2023-04-07T10:01:27.569Z,94360.00
2023-04-07T10:02:27.518Z,94358.00
2023-04-07T10:03:27.576Z,94358.00
2023-04-07T10:04:27.573Z,94358.00
2023-04-07T10:05:27.586Z,94358.00
2023-04-07T10:06:27.643Z,94356.00
2023-04-07T10:07:27.704Z,94352.00
2023-04-07T10:08:27.816Z,94352.00
2023-04-07T10:09:27.844Z,94354.00
2023-04-07T10:10:27.896Z,94350.00
2023-04-07T10:11:27.974Z,94346.00
2023-04-07T10:12:28.034Z,94346.00
2023-04-07T10:13:28.113Z,94346.00
2023-04-07T10:14:28.125Z,94344.00
2023-04-07T10:15:28.203Z,94344.00
2023-04-07T10:16:28.279Z,94340.00
2023-04-07T10:17:28.357Z,94344.00
2023-04-07T10:18:28.356Z,94340.00
2023-04-07T10:19:28.410Z,94342.00
2023-04-07T10:20:28.453Z,94340.00
2023-04-07T10:21:28.508Z,94338.00
2023-04-07T10:22:28.573Z,94338.00
2023-04-07T10:23:28.638Z,94338.00
2023-04-07T10:24:28.728Z,94336.00
2023-04-07T10:25:28.738Z,94334.00
2023-04-07T10:26:28.838Z,94334.00
2023-04-07T10:27:28.890Z,94334.00
2023-04-07T10:28:28.963Z,94332.00
2023-04-07T10:29:29.108Z,94329.00
2023-04-07T10:30:29.083Z,94329.00
2023-04-07T10:31:29.200Z,94327.00
2023-04-07T10:32:29.285Z,94327.00
2023-04-07T10:33:29.255Z,94323.00
2023-04-07T10:34:29.322Z,94325.00
2023-04-07T10:35:29.767Z,94325.00
2023-04-07T10:36:29.571Z,94323.00
2023-04-07T10:37:29.527Z,94323.00
2023-04-07T10:38:29.563Z,94321.00
2023-04-07T10:39:29.663Z,94319.00
2023-04-07T10:40:29.708Z,94319.00
2023-04-07T10:41:29.831Z,94317.00
2023-04-07T10:42:29.888Z,94317.00
2023-04-07T10:43:30.672Z,94317.00
2023-04-07T10:44:30.640Z,94315.00
2023-04-07T10:45:30.605Z,94313.00
2023-04-07T10:46:30.152Z,94309.00
2023-04-07T10:47:30.218Z,94311.00
2023-04-07T10:48:30.239Z,94309.00
2023-04-07T10:49:30.316Z,94307.00
2023-04-07T10:50:30.375Z,94307.00
2023-04-07T10:51:30.485Z,94307.00
2023-04-07T10:52:30.492Z,94305.00
2023-04-07T10:53:30.550Z,94303.00
2023-04-07T10:54:30.620Z,94305.00
2023-04-07T10:55:31.647Z,94301.00
2023-04-07T10:56:30.764Z,94301.00
2023-04-07T10:57:30.808Z,94295.00
2023-04-07T10:58:30.875Z,94299.00
2023-04-07T10:59:30.926Z,94295.00
2023-04-07T11:00:31.008Z,94293.00
2023-04-07T11:01:31.061Z,94293.00
2023-04-07T11:02:31.300Z,94293.00
2023-04-07T11:03:31.278Z,94293.00
2023-04-07T11:04:31.335Z,94290.00
2023-04-07T11:05:31.282Z,94290.00
2023-04-07T11:06:31.384Z,94287.00
2023-04-07T11:07:31.404Z,94287.00
2023-04-07T11:08:31.456Z,94284.00
2023-04-07T11:09:31.568Z,94285.00
2023-04-07T11:10:31.646Z,94282.00
2023-04-07T11:11:31.635Z,94278.00
2023-04-07T11:12:31.732Z,94278.00
2023-04-07T11:13:31.808Z,94274.00
2023-04-07T11:14:31.836Z,94274.00
2023-04-07T11:15:32.629Z,94276.00
2023-04-07T11:16:32.102Z,94274.00
2023-04-07T11:17:32.166Z,94272.00
2023-04-07T11:18:32.098Z,94270.00
2023-04-07T11:19:32.166Z,94270.00
2023-04-07T11:20:32.192Z,94264.00
2023-04-07T11:21:32.238Z,94266.00
2023-04-07T11:22:32.267Z,94262.00
2023-04-07T11:23:32.338Z,94266.00
2023-04-07T11:24:32.437Z,94264.00
2023-04-07T11:25:32.432Z,94262.00
2023-04-07T11:26:32.503Z,94262.00
2023-04-07T11:27:32.512Z,94262.00
2023-04-07T11:28:32.544Z,94262.00
2023-04-07T11:29:32.589Z,94260.00
2023-04-07T11:30:32.676Z,94258.00
2023-04-07T11:31:32.728Z,94258.00
2023-04-07T11:32:32.775Z,94256.00
2023-04-07T11:33:32.828Z,94254.00
2023-04-07T11:34:32.891Z,94254.00
2023-04-07T11:35:32.990Z,94256.00
2023-04-07T11:36:32.977Z,94252.00
2023-04-07T11:37:33.041Z,94248.00
2023-04-07T11:38:33.107Z,94248.00
2023-04-07T11:39:33.192Z,94248.00
2023-04-07T11:40:33.256Z,94248.00
2023-04-07T11:41:33.392Z,94244.00
2023-04-07T11:42:33.354Z,94244.00
2023-04-07T11:43:33.404Z,94244.00
2023-04-07T11:44:33.500Z,94240.00